Time;durP1;ratioP1;P1;durP2;ratioP2;P2;SDS_P1;SDS_P2;PMS_P1;PMS_P2;Temp;Humidity;BMP_temperature;BMP_pressure;BME280_temperature;BME280_humidity;BME280_pressure;Samples;Min_cycle;Max_cycle;Signal;HPM_P1;HPM_P2
2022/12/12 00:00:08;;;;;;;34.80;19.77;;;;;;;;;;5034407;28;20052;-74
2022/12/12 00:02:34;;;;;;;36.50;20.97;;;;;;;;;;5052299;28;20049;-74
2022/12/12 00:05:00;;;;;;;34.53;19.73;;;;;;;;;;5034057;28;20494;-73
2022/12/12 00:07:27;;;;;;;38.67;20.92;;;;;;;;;;5055891;28;20041;-74
2022/12/12 00:09:54;;;;;;;40.00;21.20;;;;;;;;;;5055776;28;20060;-74
2022/12/12 00:12:20;;;;;;;39.90;21.73;;;;;;;;;;5054024;28;20052;-74
2022/12/12 00:14:46;;;;;;;37.15;21.10;;;;;;;;;;5053011;28;20049;-74
2022/12/12 00:17:12;;;;;;;38.35;21.23;;;;;;;;;;5053502;28;20051;-74
2022/12/12 00:19:38;;;;;;;40.30;21.98;;;;;;;;;;5051118;28;20052;-74
2022/12/12 00:22:04;;;;;;;38.13;21.33;;;;;;;;;;5054838;28;20403;-74
2022/12/12 00:24:30;;;;;;;39.63;21.88;;;;;;;;;;5053915;28;20068;-74
2022/12/12 00:26:56;;;;;;;39.17;21.52;;;;;;;;;;5053442;28;20054;-74
2022/12/12 00:29:22;;;;;;;41.35;22.35;;;;;;;;;;5034090;28;20045;-74
2022/12/12 00:31:48;;;;;;;43.42;22.90;;;;;;;;;;5054162;28;20071;-74
2022/12/12 00:34:14;;;;;;;44.33;23.58;;;;;;;;;;5053874;28;20052;-74
2022/12/12 00:36:40;;;;;;;43.75;23.67;;;;;;;;;;5033297;28;20414;-74
2022/12/12 00:39:06;;;;;;;41.72;22.70;;;;;;;;;;5053549;28;20049;-74
2022/12/12 00:41:33;;;;;;;40.50;22.20;;;;;;;;;;5032763;28;20052;-74
2022/12/12 00:43:59;;;;;;;42.50;21.88;;;;;;;;;;5052617;28;20078;-74
2022/12/12 00:46:25;;;;;;;40.25;21.73;;;;;;;;;;5051279;28;20045;-74
2022/12/12 00:48:54;;;;;;;43.85;23.77;;;;;;;;;;5050971;28;20048;-74
2022/12/12 00:51:21;;;;;;;42.67;22.40;;;;;;;;;;5033951;28;20491;-74
2022/12/12 00:53:48;;;;;;;42.25;22.92;;;;;;;;;;5054502;28;20041;-74
2022/12/12 00:56:15;;;;;;;39.67;21.02;;;;;;;;;;5052005;28;20122;-74
2022/12/12 00:58:41;;;;;;;42.80;23.23;;;;;;;;;;5052160;28;20041;-74
2022/12/12 01:01:12;;;;;;;45.30;22.63;;;;;;;;;;5053268;28;20049;-74
2022/12/12 01:03:39;;;;;;;40.08;22.40;;;;;;;;;;5052177;28;20049;-74
2022/12/12 01:06:06;;;;;;;43.38;22.33;;;;;;;;;;5030758;28;20786;-73
2022/12/12 01:08:32;;;;;;;43.55;23.05;;;;;;;;;;5053179;28;20043;-74
2022/12/12 01:10:58;;;;;;;39.45;21.33;;;;;;;;;;5033447;28;20044;-74
2022/12/12 01:13:25;;;;;;;42.38;22.05;;;;;;;;;;5050585;28;20053;-74
2022/12/12 01:15:51;;;;;;;42.95;21.98;;;;;;;;;;5052248;28;20056;-74
2022/12/12 01:18:18;;;;;;;38.55;21.52;;;;;;;;;;5052120;28;20051;-74
2022/12/12 01:20:45;;;;;;;43.03;22.48;;;;;;;;;;5032266;28;20045;-74
2022/12/12 01:23:11;;;;;;;42.60;21.48;;;;;;;;;;5046490;28;20503;-73
2022/12/12 01:25:37;;;;;;;43.38;22.08;;;;;;;;;;5017513;28;20487;-73
2022/12/12 01:28:04;;;;;;;39.65;21.33;;;;;;;;;;5053116;28;20476;-74
2022/12/12 01:30:30;;;;;;;37.00;20.27;;;;;;;;;;5052626;28;20041;-73
2022/12/12 01:32:56;;;;;;;37.92;20.58;;;;;;;;;;5053130;28;20056;-74
2022/12/12 01:35:22;;;;;;;35.95;20.30;;;;;;;;;;5050797;28;20049;-73
2022/12/12 01:37:48;;;;;;;37.85;20.70;;;;;;;;;;5035127;28;20056;-73
2022/12/12 01:40:19;;;;;;;35.67;19.63;;;;;;;;;;5048411;28;20131;-72
2022/12/12 01:42:45;;;;;;;35.95;20.58;;;;;;;;;;5048759;28;20041;-72
2022/12/12 01:45:30;;;;;;;35.67;19.63;;;;;;;;;;5032913;28;20053;-72
2022/12/12 01:47:56;;;;;;;33.80;18.83;;;;;;;;;;5033411;28;20402;-73
2022/12/12 01:50:22;;;;;;;39.80;20.42;;;;;;;;;;5035694;28;20045;-73
2022/12/12 01:52:49;;;;;;;31.13;18.63;;;;;;;;;;5036045;28;20075;-73
2022/12/12 01:55:17;;;;;;;36.85;19.63;;;;;;;;;;5052354;28;20107;-73
2022/12/12 01:57:45;;;;;;;35.47;19.05;;;;;;;;;;5052855;28;20395;-72
2022/12/12 02:00:12;;;;;;;32.75;19.33;;;;;;;;;;5053429;28;20538;-73
2022/12/12 02:02:40;;;;;;;33.10;18.70;;;;;;;;;;5053475;28;20564;-73
2022/12/12 02:05:13;;;;;;;34.33;19.45;;;;;;;;;;5052929;28;20048;-73
2022/12/12 02:07:39;;;;;;;33.53;18.92;;;;;;;;;;5053014;28;20041;-72
2022/12/12 02:10:05;;;;;;;35.40;19.85;;;;;;;;;;5017302;28;20049;-72
2022/12/12 02:12:31;;;;;;;33.85;19.17;;;;;;;;;;5053467;28;20041;-73
2022/12/12 02:14:57;;;;;;;32.70;19.02;;;;;;;;;;5053246;28;20056;-73
2022/12/12 02:17:53;;;;;;;32.50;18.63;;;;;;;;;;5053268;28;20052;-73
2022/12/12 02:20:22;;;;;;;33.03;19.08;;;;;;;;;;5023359;28;20399;-72
2022/12/12 02:22:48;;;;;;;32.88;18.52;;;;;;;;;;5044306;28;20071;-73
2022/12/12 02:25:23;;;;;;;31.33;19.05;;;;;;;;;;5049013;28;20486;-73
2022/12/12 02:27:58;;;;;;;31.25;19.38;;;;;;;;;;5050869;28;20037;-73
2022/12/12 02:30:29;;;;;;;31.48;18.67;;;;;;;;;;5051074;28;20045;-73
2022/12/12 02:33:02;;;;;;;32.53;18.77;;;;;;;;;;5051660;28;20069;-72
2022/12/12 02:35:34;;;;;;;30.77;18.92;;;;;;;;;;5051200;28;20131;-73
2022/12/12 02:38:12;;;;;;;32.60;19.35;;;;;;;;;;5049680;28;20124;-72
2022/12/12 02:40:45;;;;;;;32.70;18.73;;;;;;;;;;5030738;28;20095;-73
2022/12/12 02:43:13;;;;;;;32.15;19.50;;;;;;;;;;5050604;28;20196;-73
2022/12/12 02:45:42;;;;;;;32.08;18.67;;;;;;;;;;5051778;28;20041;-73
2022/12/12 02:48:31;;;;;;;33.60;19.60;;;;;;;;;;5051204;28;20098;-73
2022/12/12 02:50:58;;;;;;;32.70;19.67;;;;;;;;;;5032670;28;20049;-72
2022/12/12 02:53:24;;;;;;;34.55;20.05;;;;;;;;;;5049503;28;20053;-72
2022/12/12 02:56:00;;;;;;;32.47;19.23;;;;;;;;;;5051284;28;20384;-72
2022/12/12 02:58:26;;;;;;;33.30;19.08;;;;;;;;;;5016800;28;20761;-72
2022/12/12 03:01:11;;;;;;;33.70;19.73;;;;;;;;;;5050872;28;20062;-72
2022/12/12 03:09:46;;;;;;;35.95;19.30;;;;;;;;;;5051049;28;20052;-72
2022/12/12 03:12:38;;;;;;;31.80;19.67;;;;;;;;;;5049533;28;20052;-72
2022/12/12 03:15:22;;;;;;;33.10;19.50;;;;;;;;;;5020072;28;20052;-72
2022/12/12 03:17:51;;;;;;;33.63;19.33;;;;;;;;;;5032173;28;20047;-72
2022/12/12 03:20:24;;;;;;;33.20;19.70;;;;;;;;;;5047090;28;20060;-72
2022/12/12 03:23:10;;;;;;;35.25;19.98;;;;;;;;;;5049840;28;20041;-72
2022/12/12 03:25:55;;;;;;;33.63;18.77;;;;;;;;;;5048452;28;20084;-72
2022/12/12 03:28:29;;;;;;;30.92;19.10;;;;;;;;;;5032448;28;20045;-73
2022/12/12 03:30:57;;;;;;;33.50;19.38;;;;;;;;;;5051315;28;20048;-72
2022/12/12 03:33:29;;;;;;;34.78;21.20;;;;;;;;;;5050280;28;20037;-72
2022/12/12 03:35:55;;;;;;;34.08;19.27;;;;;;;;;;5049389;28;20045;-72
2022/12/12 03:38:23;;;;;;;33.25;20.83;;;;;;;;;;5051782;28;20379;-72
2022/12/12 03:40:52;;;;;;;33.63;19.40;;;;;;;;;;5049758;28;20045;-72
2022/12/12 03:43:22;;;;;;;34.65;20.30;;;;;;;;;;5051339;28;20045;-73
2022/12/12 03:45:48;;;;;;;34.38;19.65;;;;;;;;;;5053026;28;20048;-72
2022/12/12 03:48:31;;;;;;;34.25;19.65;;;;;;;;;;5054309;28;20056;-72
2022/12/12 03:51:06;;;;;;;29.63;18.38;;;;;;;;;;5025497;28;20060;-73
2022/12/12 03:53:32;;;;;;;32.08;19.77;;;;;;;;;;5049203;28;20045;-72
2022/12/12 03:56:05;;;;;;;35.35;20.50;;;;;;;;;;5056077;28;20048;-73
2022/12/12 03:58:36;;;;;;;33.60;19.10;;;;;;;;;;5054404;28;20044;-73
2022/12/12 04:01:06;;;;;;;33.85;20.00;;;;;;;;;;5056174;28;20114;-73
2022/12/12 04:03:38;;;;;;;34.60;20.02;;;;;;;;;;5054865;28;20068;-73
2022/12/12 04:06:27;;;;;;;33.15;19.55;;;;;;;;;;5055804;28;20048;-73
2022/12/12 04:14:40;;;;;;;31.52;19.35;;;;;;;;;;5044720;28;20504;-73
2022/12/12 04:17:08;;;;;;;31.92;18.83;;;;;;;;;;5043685;28;20112;-73
2022/12/12 04:26:37;;;;;;;31.50;18.52;;;;;;;;;;5050534;28;20120;-73
2022/12/12 04:28:21;;;;;;;30.05;18.23;;;;;;;;;;5052167;28;20056;-73
2022/12/12 04:30:47;;;;;;;28.92;17.67;;;;;;;;;;5020317;28;20037;-73
2022/12/12 04:33:14;;;;;;;29.40;17.30;;;;;;;;;;5052814;28;20052;-73
2022/12/12 04:35:45;;;;;;;28.73;16.73;;;;;;;;;;5053054;28;20377;-73
2022/12/12 04:38:15;;;;;;;26.33;16.08;;;;;;;;;;5048933;28;20648;-73
2022/12/12 04:40:43;;;;;;;25.88;16.10;;;;;;;;;;5051827;28;20041;-73
2022/12/12 04:43:16;;;;;;;24.02;15.15;;;;;;;;;;5032132;28;20407;-73
2022/12/12 04:45:45;;;;;;;26.80;15.23;;;;;;;;;;5053496;28;20049;-73
2022/12/12 04:48:14;;;;;;;24.58;14.65;;;;;;;;;;5051807;28;20487;-73
2022/12/12 04:50:41;;;;;;;24.50;15.13;;;;;;;;;;5052341;28;20500;-74
2022/12/12 04:53:09;;;;;;;25.48;15.55;;;;;;;;;;5035133;28;20491;-73
2022/12/12 04:55:36;;;;;;;23.83;14.98;;;;;;;;;;5051787;28;20033;-73
2022/12/12 04:58:03;;;;;;;24.35;14.50;;;;;;;;;;5035009;28;20540;-73
2022/12/12 05:00:31;;;;;;;27.83;16.27;;;;;;;;;;5053800;28;20053;-73
2022/12/12 05:03:21;;;;;;;25.33;16.15;;;;;;;;;;5051160;28;20102;-73
2022/12/12 05:05:50;;;;;;;23.98;13.98;;;;;;;;;;4992320;28;20527;-73
2022/12/12 05:08:21;;;;;;;26.95;15.63;;;;;;;;;;4972626;28;20078;-73
2022/12/12 05:10:50;;;;;;;25.92;15.52;;;;;;;;;;4991642;28;20560;-73
2022/12/12 05:13:17;;;;;;;27.63;17.05;;;;;;;;;;4991990;28;20053;-73
2022/12/12 05:15:44;;;;;;;28.08;16.60;;;;;;;;;;4975753;28;20053;-73
2022/12/12 05:18:10;;;;;;;28.88;16.80;;;;;;;;;;4973766;28;20050;-73
2022/12/12 05:20:37;;;;;;;24.45;15.77;;;;;;;;;;4975373;28;20154;-73
2022/12/12 05:23:03;;;;;;;27.45;15.88;;;;;;;;;;4973330;28;20577;-73
2022/12/12 05:25:29;;;;;;;25.88;15.73;;;;;;;;;;4972874;28;20046;-73
2022/12/12 05:27:55;;;;;;;27.08;16.02;;;;;;;;;;4990749;28;20614;-73
2022/12/12 05:30:22;;;;;;;24.63;15.23;;;;;;;;;;4975630;28;20388;-73
2022/12/12 05:32:49;;;;;;;27.88;16.52;;;;;;;;;;4990677;28;20034;-73
2022/12/12 05:35:15;;;;;;;27.15;15.90;;;;;;;;;;4971480;28;20050;-73
2022/12/12 05:37:41;;;;;;;26.88;16.67;;;;;;;;;;4988377;28;20397;-73
2022/12/12 05:40:08;;;;;;;28.95;17.40;;;;;;;;;;4990686;28;20053;-73
2022/12/12 05:42:34;;;;;;;29.15;17.17;;;;;;;;;;4997489;28;20068;-73
2022/12/12 05:45:00;;;;;;;26.08;16.35;;;;;;;;;;5051910;28;20037;-73
2022/12/12 05:47:26;;;;;;;26.00;16.35;;;;;;;;;;5046201;28;20045;-73
2022/12/12 05:49:52;;;;;;;27.27;16.30;;;;;;;;;;5045223;28;20041;-73
2022/12/12 05:52:18;;;;;;;29.13;16.75;;;;;;;;;;5027119;28;20033;-73
2022/12/12 05:54:44;;;;;;;25.98;15.90;;;;;;;;;;5044610;28;20499;-73
2022/12/12 05:57:10;;;;;;;31.00;17.80;;;;;;;;;;5045279;28;20453;-73
2022/12/12 05:59:36;;;;;;;30.02;17.38;;;;;;;;;;5044445;28;20092;-73
2022/12/12 06:02:02;;;;;;;29.02;17.10;;;;;;;;;;5026414;28;20041;-73
2022/12/12 06:04:29;;;;;;;29.42;17.88;;;;;;;;;;5043294;28;20041;-73
2022/12/12 06:06:55;;;;;;;28.70;17.35;;;;;;;;;;5043753;28;20123;-73
2022/12/12 06:09:21;;;;;;;28.02;17.25;;;;;;;;;;5044444;28;20473;-73
2022/12/12 06:11:47;;;;;;;33.33;19.38;;;;;;;;;;5047328;28;20048;-73
2022/12/12 06:14:13;;;;;;;29.23;18.25;;;;;;;;;;5044675;28;20048;-72
2022/12/12 06:16:39;;;;;;;31.27;18.48;;;;;;;;;;5044375;28;20049;-73
2022/12/12 06:19:05;;;;;;;30.88;17.83;;;;;;;;;;5048908;28;20380;-73
2022/12/12 06:21:31;;;;;;;31.77;18.50;;;;;;;;;;5051051;28;20155;-73
2022/12/12 06:23:57;;;;;;;32.22;18.67;;;;;;;;;;5034073;28;20514;-73
2022/12/12 06:26:23;;;;;;;29.77;17.40;;;;;;;;;;5049993;28;20052;-73
2022/12/12 06:28:50;;;;;;;25.20;15.70;;;;;;;;;;5051508;28;20052;-74
2022/12/12 06:31:16;;;;;;;24.10;14.43;;;;;;;;;;5051219;28;20056;-73
2022/12/12 06:33:42;;;;;;;25.20;15.80;;;;;;;;;;5048280;28;20047;-74
2022/12/12 06:36:11;;;;;;;25.73;16.02;;;;;;;;;;5034816;28;20067;-73
2022/12/12 06:38:37;;;;;;;24.95;16.15;;;;;;;;;;5050375;28;20052;-73
2022/12/12 06:41:10;;;;;;;28.98;17.67;;;;;;;;;;5050595;28;20037;-73
2022/12/12 06:43:36;;;;;;;29.50;18.27;;;;;;;;;;5049977;28;20057;-73
2022/12/12 06:46:03;;;;;;;25.65;15.75;;;;;;;;;;5044326;28;20052;-73
2022/12/12 06:48:33;;;;;;;24.13;14.52;;;;;;;;;;5050052;28;20048;-73
2022/12/12 06:50:59;;;;;;;24.75;15.65;;;;;;;;;;5050685;28;21254;-73
2022/12/12 06:53:26;;;;;;;25.35;16.33;;;;;;;;;;5051576;28;20041;-75
2022/12/12 06:55:52;;;;;;;26.70;16.38;;;;;;;;;;5047919;28;20115;-73
2022/12/12 06:58:18;;;;;;;28.75;16.83;;;;;;;;;;5047086;28;20507;-73
2022/12/12 07:00:44;;;;;;;27.30;17.13;;;;;;;;;;5048614;28;20060;-73
2022/12/12 07:03:12;;;;;;;26.55;16.52;;;;;;;;;;5046304;28;20051;-73
2022/12/12 07:05:38;;;;;;;28.77;16.92;;;;;;;;;;5046238;28;20044;-73
2022/12/12 07:08:04;;;;;;;29.98;16.38;;;;;;;;;;5043464;28;20049;-73
2022/12/12 07:10:31;;;;;;;28.77;16.85;;;;;;;;;;5051191;28;20040;-73
2022/12/12 07:12:57;;;;;;;33.05;19.02;;;;;;;;;;5052068;28;20077;-73
2022/12/12 07:15:23;;;;;;;29.13;17.98;;;;;;;;;;5037513;28;20052;-74
2022/12/12 07:17:52;;;;;;;33.88;19.20;;;;;;;;;;5036052;28;20099;-73
2022/12/12 07:20:18;;;;;;;31.05;18.52;;;;;;;;;;5056587;28;20084;-74
2022/12/12 07:22:44;;;;;;;32.33;18.85;;;;;;;;;;5025759;28;20041;-73
2022/12/12 07:25:10;;;;;;;32.53;19.55;;;;;;;;;;5055899;28;20060;-73
2022/12/12 07:27:36;;;;;;;33.15;19.25;;;;;;;;;;5054896;28;20052;-73
2022/12/12 07:30:03;;;;;;;34.08;20.45;;;;;;;;;;5051201;28;20449;-73
2022/12/12 07:32:29;;;;;;;33.70;20.02;;;;;;;;;;5054025;28;20514;-73
2022/12/12 07:34:55;;;;;;;34.47;20.67;;;;;;;;;;5051829;28;20045;-74
2022/12/12 07:37:21;;;;;;;39.83;21.90;;;;;;;;;;5051257;28;20055;-73
2022/12/12 07:39:47;;;;;;;35.83;21.02;;;;;;;;;;5053543;28;20430;-73
2022/12/12 07:42:13;;;;;;;35.25;20.15;;;;;;;;;;5035353;28;20052;-74
2022/12/12 07:44:39;;;;;;;34.72;20.85;;;;;;;;;;5035641;28;20060;-74
2022/12/12 07:47:05;;;;;;;39.05;20.77;;;;;;;;;;5034922;28;20044;-73
2022/12/12 07:49:31;;;;;;;33.22;20.17;;;;;;;;;;5053831;28;20487;-74
2022/12/12 07:51:58;;;;;;;35.45;20.80;;;;;;;;;;5043459;28;20098;-73
2022/12/12 07:54:24;;;;;;;38.45;20.75;;;;;;;;;;5054345;28;20510;-73
2022/12/12 07:56:50;;;;;;;38.28;21.55;;;;;;;;;;5019112;28;20469;-73
2022/12/12 07:59:16;;;;;;;37.03;21.48;;;;;;;;;;5053468;28;20501;-74
2022/12/12 08:01:42;;;;;;;35.20;21.42;;;;;;;;;;5053292;28;20391;-74
2022/12/12 08:04:08;;;;;;;37.63;20.65;;;;;;;;;;5034985;28;20041;-74
2022/12/12 08:06:34;;;;;;;35.90;19.92;;;;;;;;;;5053363;28;20060;-74
2022/12/12 08:09:00;;;;;;;35.97;20.33;;;;;;;;;;5052936;28;20133;-74
2022/12/12 08:11:26;;;;;;;38.80;20.58;;;;;;;;;;5031388;28;20403;-74
2022/12/12 08:13:53;;;;;;;38.47;22.00;;;;;;;;;;5032886;28;20095;-74
2022/12/12 08:16:23;;;;;;;36.70;21.33;;;;;;;;;;5050209;28;20045;-74
2022/12/12 08:18:49;;;;;;;42.42;20.67;;;;;;;;;;5054151;28;20051;-74
2022/12/12 08:21:18;;;;;;;38.60;21.45;;;;;;;;;;5054467;28;20506;-74
2022/12/12 08:23:44;;;;;;;38.30;21.60;;;;;;;;;;5036568;28;20116;-74
2022/12/12 08:26:11;;;;;;;38.97;21.42;;;;;;;;;;5050678;28;20110;-74
2022/12/12 08:28:40;;;;;;;35.67;19.70;;;;;;;;;;5054516;28;20053;-74
2022/12/12 08:31:06;;;;;;;34.15;19.60;;;;;;;;;;5036498;28;20495;-74
2022/12/12 08:33:32;;;;;;;37.33;21.45;;;;;;;;;;5054277;28;20041;-74
2022/12/12 08:35:58;;;;;;;42.25;21.73;;;;;;;;;;5042248;28;20076;-74
2022/12/12 08:38:24;;;;;;;36.10;20.45;;;;;;;;;;5050992;28;20095;-74
2022/12/12 08:40:51;;;;;;;40.05;22.50;;;;;;;;;;5052119;28;20048;-74
2022/12/12 08:43:17;;;;;;;39.50;21.38;;;;;;;;;;5039968;28;20048;-75
2022/12/12 08:45:43;;;;;;;40.83;22.33;;;;;;;;;;5051890;28;20178;-74
2022/12/12 08:48:10;;;;;;;41.40;22.95;;;;;;;;;;5048787;28;20043;-74
2022/12/12 08:50:39;;;;;;;38.80;22.17;;;;;;;;;;5032053;28;20053;-74
2022/12/12 08:53:05;;;;;;;41.63;22.42;;;;;;;;;;5033319;28;20082;-75
2022/12/12 08:55:31;;;;;;;40.20;22.45;;;;;;;;;;5048506;28;21948;-74
2022/12/12 08:57:57;;;;;;;38.20;21.42;;;;;;;;;;5014992;28;20045;-74
2022/12/12 09:00:23;;;;;;;39.95;21.85;;;;;;;;;;5050556;28;20498;-74
2022/12/12 09:02:49;;;;;;;41.45;22.48;;;;;;;;;;5053002;28;20063;-74
2022/12/12 09:05:15;;;;;;;42.50;22.65;;;;;;;;;;5035520;28;20048;-74
2022/12/12 09:07:41;;;;;;;46.08;23.58;;;;;;;;;;5029277;28;20084;-74
2022/12/12 09:10:08;;;;;;;45.30;23.00;;;;;;;;;;5033764;28;20081;-74
2022/12/12 09:12:34;;;;;;;43.28;23.58;;;;;;;;;;5032567;28;20041;-74
2022/12/12 09:15:00;;;;;;;43.13;23.42;;;;;;;;;;5053091;28;20051;-74
2022/12/12 09:17:26;;;;;;;43.42;23.75;;;;;;;;;;5053777;28;20049;-74
2022/12/12 09:19:52;;;;;;;42.22;22.73;;;;;;;;;;5053648;28;20041;-74
2022/12/12 09:22:18;;;;;;;41.17;23.20;;;;;;;;;;5053622;28;20053;-74
2022/12/12 09:24:44;;;;;;;41.70;23.10;;;;;;;;;;5052232;28;20049;-74
2022/12/12 09:27:10;;;;;;;48.80;25.52;;;;;;;;;;5034378;28;20064;-74
2022/12/12 09:29:36;;;;;;;48.53;25.23;;;;;;;;;;5052783;28;20057;-74
2022/12/12 09:32:05;;;;;;;45.95;25.75;;;;;;;;;;5053095;28;20049;-74
2022/12/12 09:34:31;;;;;;;47.60;25.15;;;;;;;;;;5034042;28;20059;-74
2022/12/12 09:36:57;;;;;;;49.70;24.73;;;;;;;;;;5037418;28;20178;-74
2022/12/12 09:39:23;;;;;;;45.67;25.05;;;;;;;;;;5034082;28;20041;-74
2022/12/12 09:41:49;;;;;;;52.95;26.38;;;;;;;;;;5052220;28;20055;-75
2022/12/12 09:44:21;;;;;;;53.83;26.58;;;;;;;;;;5034429;28;20131;-74
2022/12/12 09:46:47;;;;;;;;;;;;;;;;;;5035435;28;20049;-74
2022/12/12 09:49:15;;;;;;;48.40;24.98;;;;;;;;;;5052874;28;20004;-74
2022/12/12 09:51:43;;;;;;;55.65;26.55;;;;;;;;;;5051304;28;20502;-74
2022/12/12 09:54:12;;;;;;;56.83;28.35;;;;;;;;;;5033214;28;20060;-74
2022/12/12 09:56:54;;;;;;;57.47;29.02;;;;;;;;;;5048637;28;20048;-74
2022/12/12 09:59:43;;;;;;;58.20;28.25;;;;;;;;;;5045737;28;20049;-74
2022/12/12 10:02:09;;;;;;;59.42;28.95;;;;;;;;;;5043931;28;20040;-74
2022/12/12 10:04:39;;;;;;;60.10;29.08;;;;;;;;;;5052540;28;20045;-74
2022/12/12 10:07:08;;;;;;;63.95;29.17;;;;;;;;;;5050796;28;20363;-74
2022/12/12 10:09:40;;;;;;;63.20;29.27;;;;;;;;;;5032250;28;20503;-74
2022/12/12 10:12:07;;;;;;;56.97;29.27;;;;;;;;;;5052873;28;20049;-74
2022/12/12 10:14:36;;;;;;;58.78;27.92;;;;;;;;;;5052790;28;20052;-74
2022/12/12 10:17:04;;;;;;;56.50;29.73;;;;;;;;;;5052142;28;20199;-74
2022/12/12 10:19:32;;;;;;;60.53;30.73;;;;;;;;;;5052136;28;20045;-74
2022/12/12 10:22:04;;;;;;;62.35;30.55;;;;;;;;;;5051352;28;20041;-74
2022/12/12 10:24:37;;;;;;;58.35;28.95;;;;;;;;;;5052197;28;20051;-74
2022/12/12 10:27:09;;;;;;;57.00;28.33;;;;;;;;;;5043270;28;20049;-74
2022/12/12 10:29:35;;;;;;;59.08;29.63;;;;;;;;;;5047642;28;20415;-74
2022/12/12 10:32:01;;;;;;;56.65;29.27;;;;;;;;;;5032105;28;20466;-74
2022/12/12 10:34:27;;;;;;;59.88;29.50;;;;;;;;;;5032998;28;20398;-74
2022/12/12 10:36:56;;;;;;;65.47;30.33;;;;;;;;;;5033143;28;20518;-74
2022/12/12 10:39:34;;;;;;;65.55;31.60;;;;;;;;;;5049740;28;20044;-74
2022/12/12 10:42:15;;;;;;;62.10;29.83;;;;;;;;;;5031488;28;20045;-74
2022/12/12 10:44:47;;;;;;;62.20;31.30;;;;;;;;;;5016833;28;20048;-73
2022/12/12 10:47:13;;;;;;;63.45;31.02;;;;;;;;;;5033482;28;20044;-73
2022/12/12 10:49:40;;;;;;;59.85;30.55;;;;;;;;;;5047426;28;20442;-73
2022/12/12 10:52:13;;;;;;;61.63;31.27;;;;;;;;;;5045432;28;20048;-73
2022/12/12 10:54:44;;;;;;;64.78;32.13;;;;;;;;;;5050382;28;20502;-73
2022/12/12 10:57:12;;;;;;;62.33;32.03;;;;;;;;;;5050300;28;20498;-74
2022/12/12 10:59:49;;;;;;;59.92;30.77;;;;;;;;;;5051451;28;20358;-74
2022/12/12 11:02:35;;;;;;;60.83;31.55;;;;;;;;;;5034017;28;20124;-75
2022/12/12 11:05:06;;;;;;;60.20;30.67;;;;;;;;;;5050422;28;20118;-73
2022/12/12 11:07:42;;;;;;;63.17;31.13;;;;;;;;;;5051438;28;20051;-73
2022/12/12 11:10:23;;;;;;;58.75;30.45;;;;;;;;;;5047071;28;20124;-73
2022/12/12 11:13:00;;;;;;;58.30;30.85;;;;;;;;;;5044682;28;20077;-73
2022/12/12 11:15:31;;;;;;;56.80;30.90;;;;;;;;;;5043814;28;20045;-73
2022/12/12 11:17:58;;;;;;;57.65;30.63;;;;;;;;;;5050744;28;20063;-74
2022/12/12 11:20:24;;;;;;;57.60;30.42;;;;;;;;;;5051733;28;20128;-73
2022/12/12 11:22:52;;;;;;;55.53;30.05;;;;;;;;;;5050561;28;20184;-74
2022/12/12 11:25:29;;;;;;;54.08;29.08;;;;;;;;;;5032020;28;20041;-74
2022/12/12 11:27:56;;;;;;;56.17;31.17;;;;;;;;;;5032081;28;20084;-73
2022/12/12 11:30:33;;;;;;;53.03;28.63;;;;;;;;;;5051263;28;20072;-74
2022/12/12 11:33:00;;;;;;;49.03;26.27;;;;;;;;;;5050349;28;20124;-74
2022/12/12 11:35:29;;;;;;;37.47;22.25;;;;;;;;;;5031621;28;20045;-74
2022/12/12 11:37:58;;;;;;;41.42;24.33;;;;;;;;;;5031428;28;20041;-74
2022/12/12 11:40:27;;;;;;;38.08;23.35;;;;;;;;;;5033306;28;20049;-74
2022/12/12 11:43:06;;;;;;;39.08;23.48;;;;;;;;;;5031958;28;20045;-73
2022/12/12 11:45:32;;;;;;;39.92;23.92;;;;;;;;;;5050831;28;20391;-72
2022/12/12 11:47:58;;;;;;;43.75;25.05;;;;;;;;;;5050149;28;20049;-73
2022/12/12 11:50:26;;;;;;;39.47;22.95;;;;;;;;;;5034143;28;20056;-73
2022/12/12 11:53:00;;;;;;;43.60;25.35;;;;;;;;;;5051181;28;20049;-73
2022/12/12 11:55:26;;;;;;;40.05;23.60;;;;;;;;;;5031380;28;20080;-73
2022/12/12 11:58:02;;;;;;;41.47;24.00;;;;;;;;;;5038148;28;20048;-73
2022/12/12 12:00:34;;;;;;;34.13;22.23;;;;;;;;;;5050525;28;20061;-73
2022/12/12 12:03:20;;;;;;;34.40;20.60;;;;;;;;;;5054651;28;20102;-73
2022/12/12 12:05:46;;;;;;;31.10;19.45;;;;;;;;;;5054006;28;20053;-73
2022/12/12 12:08:15;;;;;;;29.65;18.27;;;;;;;;;;5053171;28;20064;-73
2022/12/12 12:10:51;;;;;;;33.08;19.58;;;;;;;;;;5053264;28;20387;-73
2022/12/12 12:13:30;;;;;;;31.92;20.08;;;;;;;;;;5054634;28;20070;-73
2022/12/12 12:16:08;;;;;;;34.05;20.27;;;;;;;;;;5053822;28;20098;-73
2022/12/12 12:18:34;;;;;;;33.30;20.30;;;;;;;;;;5036564;28;20368;-73
2022/12/12 12:21:12;;;;;;;25.13;16.15;;;;;;;;;;5037045;28;20483;-74
2022/12/12 12:23:55;;;;;;;25.05;16.05;;;;;;;;;;5053588;28;20045;-73
2022/12/12 12:26:33;;;;;;;28.10;16.77;;;;;;;;;;5053789;28;20106;-73
2022/12/12 12:29:05;;;;;;;24.10;15.85;;;;;;;;;;5033663;28;20060;-73
2022/12/12 12:31:40;;;;;;;26.38;17.48;;;;;;;;;;5053407;28;20124;-73
2022/12/12 12:34:06;;;;;;;24.27;15.35;;;;;;;;;;5034459;28;20048;-73
2022/12/12 12:36:56;;;;;;;21.55;15.15;;;;;;;;;;5042992;28;20063;-74
2022/12/12 12:39:29;;;;;;;25.05;15.55;;;;;;;;;;5034814;28;20037;-73
2022/12/12 12:41:55;;;;;;;23.33;14.60;;;;;;;;;;5052682;28;20037;-73
2022/12/12 12:44:30;;;;;;;23.15;15.00;;;;;;;;;;5053455;28;20100;-73
2022/12/12 12:47:05;;;;;;;23.23;14.80;;;;;;;;;;5033337;28;20048;-73
2022/12/12 12:49:39;;;;;;;22.38;14.57;;;;;;;;;;5050590;28;20041;-73
2022/12/12 12:52:09;;;;;;;22.85;14.40;;;;;;;;;;5053158;28;20072;-73
2022/12/12 12:54:39;;;;;;;24.35;15.43;;;;;;;;;;5049822;28;20052;-74
2022/12/12 12:57:09;;;;;;;21.17;13.93;;;;;;;;;;5046077;28;20067;-73
2022/12/12 12:59:38;;;;;;;23.67;14.20;;;;;;;;;;5052881;28;20499;-73
2022/12/12 13:02:21;;;;;;;21.95;13.95;;;;;;;;;;5032799;28;20395;-73
2022/12/12 13:04:50;;;;;;;22.52;13.95;;;;;;;;;;5036398;28;20040;-73
2022/12/12 13:07:21;;;;;;;22.25;14.00;;;;;;;;;;5030751;28;20387;-73
2022/12/12 13:09:54;;;;;;;20.38;13.73;;;;;;;;;;5052986;28;20087;-73
2022/12/12 13:12:20;;;;;;;21.58;13.88;;;;;;;;;;5033961;28;20059;-73
2022/12/12 13:14:51;;;;;;;21.08;13.07;;;;;;;;;;5047242;28;20574;-73
2022/12/12 13:17:20;;;;;;;21.00;13.27;;;;;;;;;;5049721;28;20083;-73
2022/12/12 13:19:47;;;;;;;22.85;13.52;;;;;;;;;;5048040;28;20060;-74
2022/12/12 13:22:17;;;;;;;20.90;12.38;;;;;;;;;;5040400;28;20411;-73
2022/12/12 13:24:48;;;;;;;22.17;12.48;;;;;;;;;;5054039;28;20441;-74
2022/12/12 13:27:14;;;;;;;20.38;12.68;;;;;;;;;;5049193;28;20045;-73
2022/12/12 13:29:40;;;;;;;19.08;11.73;;;;;;;;;;5053861;28;20124;-73
2022/12/12 13:32:24;;;;;;;19.63;12.32;;;;;;;;;;5052281;28;20521;-73
2022/12/12 13:34:53;;;;;;;19.17;12.25;;;;;;;;;;5030095;28;20071;-74
2022/12/12 13:37:21;;;;;;;19.25;12.32;;;;;;;;;;5051605;28;20044;-74
2022/12/12 13:39:56;;;;;;;19.73;12.55;;;;;;;;;;5050226;28;20076;-73
2022/12/12 13:42:22;;;;;;;19.92;12.77;;;;;;;;;;5051837;28;20056;-73
2022/12/12 13:44:49;;;;;;;17.08;11.25;;;;;;;;;;5051559;28;20044;-73
2022/12/12 13:47:21;;;;;;;19.45;12.35;;;;;;;;;;5051769;28;20541;-73
2022/12/12 13:49:50;;;;;;;20.42;12.13;;;;;;;;;;5053475;28;20588;-74
2022/12/12 13:52:28;;;;;;;19.30;12.68;;;;;;;;;;5051248;28;20049;-73
2022/12/12 13:55:12;;;;;;;21.02;13.32;;;;;;;;;;5051619;28;20128;-74
2022/12/12 13:58:01;;;;;;;22.33;13.32;;;;;;;;;;5052239;28;20124;-73
2022/12/12 14:00:28;;;;;;;19.85;12.32;;;;;;;;;;5051067;28;20391;-73
2022/12/12 14:03:09;;;;;;;21.55;13.82;;;;;;;;;;5052272;28;20080;-73
2022/12/12 14:05:43;;;;;;;22.50;13.82;;;;;;;;;;5051683;28;20045;-77
2022/12/12 14:08:14;;;;;;;21.90;13.02;;;;;;;;;;5052813;28;20053;-76
2022/12/12 14:10:49;;;;;;;20.90;12.73;;;;;;;;;;5052948;28;20049;-76
2022/12/12 14:13:21;;;;;;;21.08;13.57;;;;;;;;;;5052755;28;20098;-75
2022/12/12 14:15:54;;;;;;;20.38;12.80;;;;;;;;;;5038024;28;20051;-75
2022/12/12 14:18:21;;;;;;;19.42;12.90;;;;;;;;;;5031625;28;20048;-77
2022/12/12 14:20:56;;;;;;;22.65;14.02;;;;;;;;;;5043617;28;20059;-78
2022/12/12 14:23:24;;;;;;;21.92;13.45;;;;;;;;;;5054678;28;20511;-75
2022/12/12 14:25:50;;;;;;;24.80;13.63;;;;;;;;;;5053433;28;20040;-78
2022/12/12 14:28:30;;;;;;;21.50;13.13;;;;;;;;;;5035191;28;20075;-77
2022/12/12 14:30:56;;;;;;;22.33;13.40;;;;;;;;;;5050680;28;20041;-77
2022/12/12 14:33:40;;;;;;;20.40;13.38;;;;;;;;;;5051144;28;20422;-76
2022/12/12 14:36:06;;;;;;;20.60;13.68;;;;;;;;;;5050555;28;20048;-78
2022/12/12 14:38:59;;;;;;;22.08;13.70;;;;;;;;;;5047392;28;20402;-79
2022/12/12 14:41:29;;;;;;;22.42;14.30;;;;;;;;;;5032694;28;20045;-76
2022/12/12 14:43:57;;;;;;;21.97;14.20;;;;;;;;;;5043968;28;20110;-80
2022/12/12 14:46:23;;;;;;;21.35;13.95;;;;;;;;;;5033830;28;20055;-77
2022/12/12 14:49:01;;;;;;;21.92;13.90;;;;;;;;;;5031177;28;20048;-78